createdAt,value
2023-11-17T00:05:30.030Z,22.67
2023-11-17T00:05:36.012Z,22.93
2023-11-17T00:05:41.693Z,22.89
2023-11-17T00:05:47.376Z,22.90
2023-11-17T00:05:53.061Z,22.92
2023-11-17T00:05:58.758Z,22.93
2023-11-17T00:06:32.398Z,22.93
2023-11-17T00:06:38.057Z,22.93
2023-11-17T00:06:43.765Z,22.93
2023-11-17T00:06:49.436Z,22.93
2023-11-17T00:06:55.117Z,22.95
2023-11-17T00:07:00.876Z,22.95
2023-11-17T00:07:34.468Z,22.90
2023-11-17T00:07:40.120Z,22.91
2023-11-17T00:07:45.792Z,22.90
2023-11-17T00:07:51.488Z,22.90
2023-11-17T00:07:57.155Z,22.91
2023-11-17T00:08:02.833Z,22.92
2023-11-17T00:08:36.390Z,22.93
2023-11-17T00:08:42.130Z,22.94
2023-11-17T00:08:47.767Z,22.95
2023-11-17T00:08:53.444Z,22.95
2023-11-17T00:08:59.130Z,22.95
2023-11-17T00:09:04.801Z,22.96
2023-11-17T00:09:38.411Z,22.97
2023-11-17T00:09:44.094Z,22.97
2023-11-17T00:09:49.860Z,22.98
2023-11-17T00:09:55.532Z,22.97
2023-11-17T00:10:01.216Z,22.99
2023-11-17T00:10:06.917Z,22.98
2023-11-17T00:10:41.293Z,22.97
2023-11-17T00:10:46.968Z,22.99
2023-11-17T00:10:52.646Z,22.98
2023-11-17T00:10:58.375Z,22.98
2023-11-17T00:11:04.019Z,22.97
2023-11-17T00:11:09.696Z,22.98
2023-11-17T00:11:43.271Z,23.01
2023-11-17T00:11:48.948Z,23.00
2023-11-17T00:11:54.629Z,23.01
2023-11-17T00:12:00.304Z,23.01
2023-11-17T00:12:06.053Z,23.01
2023-11-17T00:12:11.753Z,23.03
2023-11-17T00:12:45.369Z,22.99
2023-11-17T00:12:51.049Z,22.98
2023-11-17T00:12:56.738Z,22.97
2023-11-17T00:13:02.495Z,22.96
2023-11-17T00:13:08.236Z,22.95
2023-11-17T00:13:14.004Z,22.95
2023-11-17T00:13:47.497Z,22.97
2023-11-17T00:13:53.193Z,22.96
2023-11-17T00:13:58.864Z,22.98
2023-11-17T00:14:04.544Z,22.97
2023-11-17T00:14:10.232Z,22.97
2023-11-17T00:14:15.939Z,22.97
2023-11-17T00:14:49.536Z,22.99
2023-11-17T00:14:55.197Z,22.99
2023-11-17T00:15:00.874Z,22.97
2023-11-17T00:15:06.546Z,22.98
2023-11-17T00:15:12.253Z,22.98
2023-11-17T00:15:17.954Z,22.96
2023-11-17T00:15:51.578Z,22.97
2023-11-17T00:15:57.340Z,22.97
2023-11-17T00:16:02.990Z,22.95
2023-11-17T00:16:08.746Z,22.95
2023-11-17T00:16:14.422Z,22.93
2023-11-17T00:16:20.083Z,22.92
2023-11-17T00:16:53.791Z,22.91
2023-11-17T00:16:59.515Z,22.90
2023-11-17T00:17:05.200Z,22.92
2023-11-17T00:17:10.857Z,22.90
2023-11-17T00:17:16.537Z,22.91
2023-11-17T00:17:22.211Z,22.89
2023-11-17T00:17:56.233Z,22.86
2023-11-17T00:18:02.026Z,22.87
2023-11-17T00:18:07.680Z,22.86
2023-11-17T00:18:13.319Z,22.86
2023-11-17T00:18:19.882Z,22.85
2023-11-17T00:18:25.550Z,22.84
2023-11-17T00:18:59.197Z,22.86
2023-11-17T00:19:04.880Z,22.85
2023-11-17T00:19:10.642Z,22.86
2023-11-17T00:19:16.255Z,22.88
2023-11-17T00:19:21.973Z,22.86
2023-11-17T00:19:27.662Z,22.86
2023-11-17T00:20:01.204Z,22.88
2023-11-17T00:20:06.896Z,22.90
2023-11-17T00:20:12.607Z,22.89
2023-11-17T00:20:18.256Z,22.88
2023-11-17T00:20:23.934Z,22.92
2023-11-17T00:20:29.611Z,22.91
2023-11-17T00:21:03.180Z,22.92
2023-11-17T00:21:08.850Z,22.94
2023-11-17T00:21:14.529Z,22.94
2023-11-17T00:21:20.254Z,22.93
2023-11-17T00:21:25.902Z,22.93
2023-11-17T00:21:31.585Z,22.93
2023-11-17T00:22:05.185Z,22.89
2023-11-17T00:22:10.874Z,22.88
2023-11-17T00:22:16.543Z,22.88
2023-11-17T00:22:22.221Z,22.89
2023-11-17T00:22:27.918Z,22.89
2023-11-17T00:22:33.576Z,22.89
2023-11-17T00:23:07.178Z,22.88
2023-11-17T00:23:12.854Z,22.91
2023-11-17T00:23:18.536Z,22.90
2023-11-17T00:23:24.211Z,22.90
2023-11-17T00:23:29.908Z,22.92
2023-11-17T00:23:35.646Z,22.91
2023-11-17T00:25:46.098Z,22.65
2023-11-17T00:25:52.025Z,22.90
2023-11-17T00:25:57.703Z,22.84
2023-11-17T00:26:03.399Z,22.86
2023-11-17T00:26:09.059Z,22.87
2023-11-17T00:26:14.748Z,22.87
2023-11-17T00:26:48.289Z,22.90
2023-11-17T00:26:53.959Z,22.88
2023-11-17T00:26:59.638Z,22.88
2023-11-17T00:27:05.360Z,22.88
2023-11-17T00:27:11.033Z,22.88
2023-11-17T00:27:16.687Z,22.89
2023-11-17T00:27:50.274Z,22.90
2023-11-17T00:27:55.963Z,22.90
2023-11-17T00:28:01.659Z,22.90
2023-11-17T00:28:07.336Z,22.91
2023-11-17T00:28:13.005Z,22.92
2023-11-17T00:28:18.699Z,22.91
2023-11-17T00:28:52.247Z,22.92
2023-11-17T00:28:57.942Z,22.92
2023-11-17T00:29:03.597Z,22.94
2023-11-17T00:29:09.265Z,22.94
2023-11-17T00:29:14.951Z,22.94
2023-11-17T00:29:20.629Z,22.94
2023-11-17T00:29:54.216Z,22.97
2023-11-17T00:29:59.891Z,22.97
2023-11-17T00:30:05.572Z,22.97
2023-11-17T00:30:11.250Z,22.98
2023-11-17T00:30:17.019Z,22.99
2023-11-17T00:30:22.652Z,22.99
2023-11-17T00:30:56.245Z,23.01
2023-11-17T00:31:01.997Z,23.02
2023-11-17T00:31:07.638Z,23.03
2023-11-17T00:31:13.330Z,23.02
2023-11-17T00:31:19.088Z,23.02
2023-11-17T00:31:24.735Z,23.01
2023-11-17T00:31:58.308Z,23.00
2023-11-17T00:32:03.989Z,23.00
2023-11-17T00:32:09.663Z,23.02
2023-11-17T00:32:15.358Z,23.02
2023-11-17T00:32:21.078Z,23.02
2023-11-17T00:32:26.748Z,23.01
2023-11-17T00:33:00.375Z,22.99
2023-11-17T00:33:06.100Z,22.99
2023-11-17T00:33:11.721Z,22.99
2023-11-17T00:33:17.401Z,22.98
2023-11-17T00:33:23.078Z,22.98
2023-11-17T00:33:28.792Z,22.97
2023-11-17T00:34:02.539Z,22.95
2023-11-17T00:34:08.352Z,22.94
2023-11-17T00:34:14.077Z,22.94
2023-11-17T00:34:19.781Z,22.94
2023-11-17T00:34:25.496Z,22.93
2023-11-17T00:34:31.163Z,22.93
2023-11-17T00:35:04.970Z,22.93
2023-11-17T00:35:10.689Z,22.94
2023-11-17T00:35:16.340Z,22.92
2023-11-17T00:35:21.993Z,22.92
2023-11-17T00:35:27.661Z,22.92
2023-11-17T00:35:33.355Z,22.93
2023-11-17T00:36:06.898Z,22.93
2023-11-17T00:36:12.566Z,22.94
2023-11-17T00:36:18.255Z,22.94
2023-11-17T00:36:23.934Z,22.95
2023-11-17T00:36:29.612Z,22.96
2023-11-17T00:36:35.275Z,22.96
2023-11-17T00:37:09.106Z,22.95
2023-11-17T00:37:14.836Z,22.95
2023-11-17T00:37:20.529Z,22.97
2023-11-17T00:37:26.310Z,22.96
2023-11-17T00:37:32.001Z,22.96
2023-11-17T00:37:37.677Z,22.97
2023-11-17T00:38:11.242Z,22.98
2023-11-17T00:38:16.924Z,22.98
2023-11-17T00:38:22.600Z,22.97
2023-11-17T00:38:28.285Z,22.98
2023-11-17T00:38:33.964Z,22.97
2023-11-17T00:38:39.666Z,22.96
2023-11-17T00:39:13.244Z,22.98
2023-11-17T00:39:18.918Z,22.98
2023-11-17T00:39:24.601Z,22.96
2023-11-17T00:39:30.279Z,22.97
2023-11-17T00:39:35.961Z,22.96
2023-11-17T00:39:41.754Z,22.97
2023-11-17T00:40:15.296Z,22.96
2023-11-17T00:40:21.027Z,22.97
2023-11-17T00:40:26.702Z,22.96
2023-11-17T00:40:32.328Z,22.96
2023-11-17T00:40:38.008Z,22.95
2023-11-17T00:40:43.685Z,22.95
2023-11-17T00:41:24.614Z,22.93
2023-11-17T00:41:35.362Z,22.93
2023-11-17T00:41:41.087Z,22.93
2023-11-17T00:41:46.729Z,22.93
2023-11-17T00:41:52.397Z,22.92
2023-11-17T00:41:58.142Z,22.93
2023-11-17T00:42:20.535Z,22.92
2023-11-17T00:42:37.332Z,22.92
2023-11-17T00:42:43.039Z,22.92
2023-11-17T00:42:48.695Z,22.92
2023-11-17T00:42:54.464Z,22.92
2023-11-17T00:43:00.122Z,22.92
2023-11-17T00:43:22.606Z,22.94
2023-11-17T00:43:39.424Z,22.94
2023-11-17T00:43:45.098Z,22.93
2023-11-17T00:43:50.773Z,22.93
2023-11-17T00:43:56.514Z,22.93
2023-11-17T00:44:02.148Z,22.93
2023-11-17T00:44:24.570Z,22.95
2023-11-17T00:44:41.399Z,22.94
2023-11-17T00:44:47.088Z,22.95
2023-11-17T00:44:52.758Z,22.95
2023-11-17T00:44:58.458Z,22.95
2023-11-17T00:45:04.194Z,22.94
2023-11-17T00:45:26.548Z,22.93
2023-11-17T00:45:43.487Z,22.92
2023-11-17T00:45:49.291Z,22.92
2023-11-17T00:45:55.067Z,22.93
2023-11-17T00:46:00.837Z,22.92
2023-11-17T00:46:06.618Z,22.92
2023-11-17T00:46:30.006Z,22.94
2023-11-17T00:46:47.065Z,22.94
2023-11-17T00:46:52.856Z,22.95
2023-11-17T00:46:58.657Z,22.94
2023-11-17T00:47:04.474Z,22.96
2023-11-17T00:47:10.211Z,22.96
2023-11-17T00:47:32.735Z,22.96
2023-11-17T00:47:49.652Z,22.98
2023-11-17T00:47:55.304Z,22.98
2023-11-17T00:48:00.990Z,22.99
2023-11-17T00:48:06.668Z,22.98
2023-11-17T00:48:12.356Z,22.99
2023-11-17T00:48:34.722Z,23.00
2023-11-17T00:48:51.591Z,23.00
2023-11-17T00:48:57.379Z,22.99
2023-11-17T00:49:03.022Z,23.00
2023-11-17T00:49:08.694Z,23.00
2023-11-17T00:49:14.379Z,23.00
2023-11-17T00:49:36.809Z,23.00
2023-11-17T00:49:53.645Z,23.02
2023-11-17T00:49:59.387Z,23.00
2023-11-17T00:50:05.045Z,22.99
2023-11-17T00:50:10.722Z,23.00
2023-11-17T00:50:16.389Z,22.99
2023-11-17T00:50:38.827Z,22.98
2023-11-17T00:50:55.625Z,22.97
2023-11-17T00:51:01.303Z,22.96
2023-11-17T00:51:06.985Z,22.94
2023-11-17T00:51:12.673Z,22.94
2023-11-17T00:51:18.344Z,22.93
2023-11-17T00:51:40.752Z,22.92
2023-11-17T00:51:57.684Z,22.89
2023-11-17T00:52:03.407Z,22.88
2023-11-17T00:52:09.117Z,22.88
2023-11-17T00:52:14.793Z,22.87
2023-11-17T00:52:20.505Z,22.86
2023-11-17T00:52:43.407Z,22.86
2023-11-17T00:53:00.338Z,22.85
2023-11-17T00:53:06.015Z,22.86
2023-11-17T00:53:11.698Z,22.84
2023-11-17T00:53:17.382Z,22.85
2023-11-17T00:53:23.614Z,22.85
2023-11-17T00:53:46.216Z,22.85
2023-11-17T00:54:03.043Z,22.85
2023-11-17T00:54:08.715Z,22.86
2023-11-17T00:54:14.390Z,22.86
2023-11-17T00:54:20.089Z,22.86
2023-11-17T00:54:25.984Z,22.86
2023-11-17T00:54:48.472Z,22.87
2023-11-17T00:55:05.700Z,22.86
2023-11-17T00:55:11.387Z,22.87
2023-11-17T00:55:17.107Z,22.87
2023-11-17T00:55:22.806Z,22.87
2023-11-17T00:55:28.511Z,22.87
2023-11-17T00:56:03.151Z,22.64
2023-11-17T00:56:08.829Z,22.83
2023-11-17T00:56:14.520Z,22.82
2023-11-17T00:56:20.193Z,22.84
2023-11-17T00:56:25.886Z,22.86
2023-11-17T00:56:31.581Z,22.86
2023-11-17T00:57:05.159Z,22.86
2023-11-17T00:57:10.838Z,22.87
2023-11-17T00:57:16.510Z,22.86
2023-11-17T00:57:22.198Z,22.85
2023-11-17T00:57:27.886Z,22.86
2023-11-17T00:57:33.566Z,22.86
2023-11-17T00:58:07.114Z,22.85
2023-11-17T00:58:12.826Z,22.86
2023-11-17T00:58:18.551Z,22.86
2023-11-17T00:58:24.221Z,22.85
2023-11-17T00:58:29.868Z,22.86
2023-11-17T00:58:35.543Z,22.86
2023-11-17T00:59:09.093Z,22.88
2023-11-17T00:59:14.773Z,22.89
2023-11-17T00:59:20.451Z,22.87
2023-11-17T00:59:26.146Z,22.87
2023-11-17T00:59:31.828Z,22.88
2023-11-17T00:59:37.535Z,22.86
2023-11-17T01:00:11.174Z,22.84
2023-11-17T01:00:16.892Z,22.83
2023-11-17T01:00:22.535Z,22.83
2023-11-17T01:00:28.387Z,22.84
2023-11-17T01:00:34.055Z,22.85
2023-11-17T01:00:39.735Z,22.83
2023-11-17T01:01:13.497Z,22.86
2023-11-17T01:01:19.476Z,22.85
2023-11-17T01:01:25.196Z,22.86
2023-11-17T01:01:30.936Z,22.85
2023-11-17T01:01:36.613Z,22.86
2023-11-17T01:01:42.423Z,22.88
2023-11-17T01:02:16.127Z,22.89
2023-11-17T01:02:21.865Z,22.90
2023-11-17T01:02:27.606Z,22.91
2023-11-17T01:02:33.378Z,22.90
2023-11-17T01:02:39.088Z,22.90
2023-11-17T01:02:44.824Z,22.90
2023-11-17T01:03:18.436Z,22.94
2023-11-17T01:03:24.285Z,22.94
2023-11-17T01:03:29.974Z,22.93
2023-11-17T01:03:35.783Z,22.94
2023-11-17T01:03:41.482Z,22.93
2023-11-17T01:03:47.261Z,22.94
2023-11-17T01:04:20.810Z,22.93
2023-11-17T01:04:26.542Z,22.92
2023-11-17T01:04:32.255Z,22.92
2023-11-17T01:04:37.885Z,22.91
2023-11-17T01:04:43.572Z,22.93
2023-11-17T01:04:49.245Z,22.92
2023-11-17T01:05:22.808Z,22.88
2023-11-17T01:05:28.495Z,22.86
2023-11-17T01:05:34.216Z,22.85
2023-11-17T01:05:39.862Z,22.84
2023-11-17T01:05:45.543Z,22.84
2023-11-17T01:05:51.220Z,22.84
2023-11-17T01:06:24.791Z,22.86
2023-11-17T01:06:30.480Z,22.86
2023-11-17T01:06:36.150Z,22.85
2023-11-17T01:06:41.873Z,22.84
2023-11-17T01:06:47.568Z,22.84
2023-11-17T01:06:53.229Z,22.85
2023-11-17T01:07:26.835Z,22.88
2023-11-17T01:07:32.487Z,22.89
2023-11-17T01:07:38.167Z,22.89
2023-11-17T01:07:43.873Z,22.90
2023-11-17T01:07:49.572Z,22.90
2023-11-17T01:07:55.221Z,22.91
2023-11-17T01:08:28.796Z,22.90
2023-11-17T01:08:34.476Z,22.91
2023-11-17T01:08:40.150Z,22.92
2023-11-17T01:08:45.839Z,22.93
2023-11-17T01:08:51.503Z,22.93
2023-11-17T01:08:57.254Z,22.93
2023-11-17T01:09:30.832Z,22.96
2023-11-17T01:09:36.459Z,22.95
2023-11-17T01:09:42.143Z,22.95
2023-11-17T01:09:47.839Z,22.94
2023-11-17T01:09:53.609Z,22.94
2023-11-17T01:09:59.263Z,22.94
2023-11-17T01:10:32.931Z,22.94
2023-11-17T01:10:38.641Z,22.94
2023-11-17T01:10:44.359Z,22.95
2023-11-17T01:10:50.038Z,22.95
2023-11-17T01:10:55.717Z,22.94
2023-11-17T01:11:01.398Z,22.95
2023-11-17T01:11:35.014Z,22.97
2023-11-17T01:11:40.819Z,22.96
2023-11-17T01:11:46.569Z,22.97
2023-11-17T01:11:52.257Z,22.98
2023-11-17T01:11:57.945Z,22.98
2023-11-17T01:12:03.636Z,22.97
2023-11-17T01:12:37.197Z,23.00
2023-11-17T01:12:42.944Z,22.99
2023-11-17T01:12:48.750Z,22.98
2023-11-17T01:12:54.452Z,22.99
2023-11-17T01:13:00.174Z,22.99
2023-11-17T01:13:05.856Z,22.98
2023-11-17T01:13:39.448Z,22.98
2023-11-17T01:13:45.091Z,22.98
2023-11-17T01:13:50.788Z,22.97
2023-11-17T01:13:56.487Z,22.98
2023-11-17T01:14:02.148Z,22.97
2023-11-17T01:14:07.824Z,22.95
2023-11-17T01:14:42.037Z,22.90
2023-11-17T01:14:47.723Z,22.89
2023-11-17T01:14:53.408Z,22.88
2023-11-17T01:14:59.157Z,22.87
2023-11-17T01:15:04.817Z,22.87
2023-11-17T01:15:10.503Z,22.87
2023-11-17T01:15:44.132Z,22.85
2023-11-17T01:15:49.821Z,22.85
2023-11-17T01:15:55.487Z,22.85
2023-11-17T01:16:01.161Z,22.85
2023-11-17T01:16:06.937Z,22.86
2023-11-17T01:16:12.578Z,22.87
2023-11-17T01:16:46.282Z,22.84
2023-11-17T01:16:51.927Z,22.82
2023-11-17T01:16:57.615Z,22.81
2023-11-17T01:17:03.317Z,22.81
2023-11-17T01:17:08.954Z,22.82
2023-11-17T01:17:14.717Z,22.82
2023-11-17T01:17:48.304Z,22.82
2023-11-17T01:17:53.936Z,22.82
2023-11-17T01:17:59.663Z,22.81
2023-11-17T01:18:05.625Z,22.80
2023-11-17T01:18:11.298Z,22.80
2023-11-17T01:18:16.984Z,22.79
2023-11-17T01:18:50.615Z,22.80
2023-11-17T01:18:56.261Z,22.81
2023-11-17T01:19:01.929Z,22.83
2023-11-17T01:19:07.615Z,22.83
2023-11-17T01:19:13.386Z,22.84
2023-11-17T01:19:19.081Z,22.86
2023-11-17T01:19:52.626Z,22.86
2023-11-17T01:19:58.396Z,22.86
2023-11-17T01:20:04.035Z,22.87
2023-11-17T01:20:09.707Z,22.87
2023-11-17T01:20:15.425Z,22.89
2023-11-17T01:20:21.075Z,22.89
2023-11-17T01:20:54.694Z,22.90
2023-11-17T01:21:00.383Z,22.89
2023-11-17T01:21:06.096Z,22.89
2023-11-17T01:21:11.744Z,22.87
2023-11-17T01:21:17.425Z,22.88
2023-11-17T01:21:23.118Z,22.87
2023-11-17T01:21:56.757Z,22.90
2023-11-17T01:22:02.393Z,22.89
2023-11-17T01:22:08.127Z,22.89
2023-11-17T01:22:13.890Z,22.91
2023-11-17T01:22:19.640Z,22.92
2023-11-17T01:22:25.334Z,22.91
2023-11-17T01:22:58.868Z,22.92
2023-11-17T01:23:04.597Z,22.91
2023-11-17T01:23:10.298Z,22.92
2023-11-17T01:23:15.959Z,22.92
2023-11-17T01:23:21.628Z,22.92
2023-11-17T01:23:27.326Z,22.94
2023-11-17T01:24:00.914Z,22.90
2023-11-17T01:24:06.598Z,22.88
2023-11-17T01:24:12.338Z,22.89
2023-11-17T01:24:17.981Z,22.90
2023-11-17T01:24:23.650Z,22.90
2023-11-17T01:24:29.334Z,22.90
2023-11-17T01:25:02.924Z,22.90
2023-11-17T01:25:08.636Z,22.90
2023-11-17T01:25:14.346Z,22.90
2023-11-17T01:25:20.006Z,22.90
2023-11-17T01:25:25.680Z,22.90
2023-11-17T01:25:31.342Z,22.91
2023-11-17T01:26:04.971Z,22.92
2023-11-17T01:26:10.686Z,22.93
2023-11-17T01:26:16.341Z,22.93
2023-11-17T01:26:22.008Z,22.94
2023-11-17T01:26:27.693Z,22.95
2023-11-17T01:26:33.372Z,22.95
2023-11-17T01:27:06.941Z,22.95
2023-11-17T01:27:12.619Z,22.94
2023-11-17T01:27:18.295Z,22.94
2023-11-17T01:27:23.979Z,22.94
2023-11-17T01:27:29.664Z,22.93
2023-11-17T01:27:35.343Z,22.92
2023-11-17T01:28:08.964Z,22.89
2023-11-17T01:28:14.714Z,22.89
2023-11-17T01:28:20.390Z,22.89
2023-11-17T01:28:26.073Z,22.91
2023-11-17T01:28:31.725Z,22.91
2023-11-17T01:28:37.422Z,22.91
2023-11-17T01:29:10.949Z,22.92
2023-11-17T01:29:16.617Z,22.92
2023-11-17T01:29:22.297Z,22.93
2023-11-17T01:29:27.985Z,22.93
2023-11-17T01:29:33.662Z,22.94
2023-11-17T01:29:39.337Z,22.91
2023-11-17T01:30:12.904Z,22.92
2023-11-17T01:30:18.588Z,22.91
2023-11-17T01:30:24.984Z,22.91
2023-11-17T01:30:30.740Z,22.90
2023-11-17T01:30:36.419Z,22.89
2023-11-17T01:30:42.107Z,22.89
2023-11-17T01:31:15.729Z,22.87
2023-11-17T01:31:21.411Z,22.88
2023-11-17T01:31:27.049Z,22.88
2023-11-17T01:31:32.728Z,22.88
2023-11-17T01:31:38.407Z,22.87
2023-11-17T01:31:44.083Z,22.88
2023-11-17T01:32:17.633Z,22.91
2023-11-17T01:32:23.322Z,22.91
2023-11-17T01:32:29.018Z,22.91
2023-11-17T01:32:34.726Z,22.92
2023-11-17T01:32:40.413Z,22.91
2023-11-17T01:32:46.060Z,22.92
2023-11-17T01:33:19.605Z,22.92
2023-11-17T01:33:25.294Z,22.91
2023-11-17T01:33:30.974Z,22.90
2023-11-17T01:33:36.661Z,22.88
2023-11-17T01:33:42.343Z,22.89
2023-11-17T01:33:48.058Z,22.88
2023-11-17T01:34:21.670Z,22.88
2023-11-17T01:34:27.359Z,22.87
2023-11-17T01:34:33.067Z,22.86
2023-11-17T01:34:38.850Z,22.85
2023-11-17T01:34:44.525Z,22.84
2023-11-17T01:34:50.218Z,22.84
2023-11-17T01:35:23.722Z,22.83
2023-11-17T01:35:29.415Z,22.81
2023-11-17T01:35:35.106Z,22.81
2023-11-17T01:35:40.781Z,22.82
2023-11-17T01:35:46.469Z,22.82
2023-11-17T01:35:52.181Z,22.81
2023-11-17T01:36:25.687Z,22.81
2023-11-17T01:36:31.376Z,22.82
2023-11-17T01:36:37.052Z,22.80
2023-11-17T01:36:42.738Z,22.81
2023-11-17T01:36:48.434Z,22.81
2023-11-17T01:36:54.146Z,22.82
2023-11-17T01:37:27.666Z,22.85
2023-11-17T01:37:33.356Z,22.85
2023-11-17T01:37:39.026Z,22.85
2023-11-17T01:37:44.732Z,22.86
2023-11-17T01:37:50.406Z,22.86
2023-11-17T01:37:56.055Z,22.86
2023-11-17T01:38:32.352Z,22.86
2023-11-17T01:38:46.946Z,22.85
2023-11-17T01:38:57.904Z,22.87
2023-11-17T01:39:03.582Z,22.88
2023-11-17T01:39:09.259Z,22.87
2023-11-17T01:39:14.943Z,22.87
2023-11-17T01:39:31.783Z,22.84
2023-11-17T01:39:43.056Z,22.82
2023-11-17T01:39:59.940Z,22.83
2023-11-17T01:40:05.646Z,22.83
2023-11-17T01:40:11.356Z,22.84
2023-11-17T01:40:17.078Z,22.85
2023-11-17T01:40:33.864Z,22.84
2023-11-17T01:40:45.098Z,22.85
2023-11-17T01:41:01.944Z,22.87
2023-11-17T01:41:07.627Z,22.87
2023-11-17T01:41:13.310Z,22.87
2023-11-17T01:41:18.993Z,22.88
2023-11-17T01:41:35.808Z,22.87
2023-11-17T01:41:47.070Z,22.88
2023-11-17T01:42:03.884Z,22.91
2023-11-17T01:42:09.570Z,22.92
2023-11-17T01:42:15.261Z,22.92
2023-11-17T01:42:20.933Z,22.91
2023-11-17T01:42:37.761Z,22.92
2023-11-17T01:42:49.050Z,22.92
2023-11-17T01:43:05.885Z,22.91
2023-11-17T01:43:11.563Z,22.91
2023-11-17T01:43:17.288Z,22.90
2023-11-17T01:43:22.957Z,22.89
2023-11-17T01:43:39.743Z,22.89
2023-11-17T01:43:51.021Z,22.88
2023-11-17T01:44:07.854Z,22.88
2023-11-17T01:44:13.531Z,22.90
2023-11-17T01:44:19.307Z,22.91
2023-11-17T01:44:24.913Z,22.90
2023-11-17T01:44:41.743Z,22.89
2023-11-17T01:44:53.063Z,22.90
2023-11-17T01:45:09.871Z,22.91
2023-11-17T01:45:15.533Z,22.91
2023-11-17T01:45:21.202Z,22.90
2023-11-17T01:45:26.929Z,22.90
2023-11-17T01:45:44.068Z,22.89
2023-11-17T01:45:55.407Z,22.88
2023-11-17T01:46:12.260Z,22.88
2023-11-17T01:46:18.060Z,22.88
2023-11-17T01:46:23.751Z,22.88
2023-11-17T01:46:29.474Z,22.88
2023-11-17T01:46:46.433Z,22.89
2023-11-17T01:46:57.707Z,22.90
2023-11-17T01:47:14.556Z,22.88
2023-11-17T01:47:20.240Z,22.89
2023-11-17T01:47:25.929Z,22.90
2023-11-17T01:47:31.759Z,22.89
2023-11-17T01:47:48.650Z,22.90
2023-11-17T01:47:59.935Z,22.91
2023-11-17T01:48:16.742Z,22.91
2023-11-17T01:48:22.397Z,22.92
2023-11-17T01:48:28.128Z,22.91
2023-11-17T01:48:33.815Z,22.93
2023-11-17T01:48:50.737Z,22.93
2023-11-17T01:49:01.960Z,22.94
2023-11-17T01:49:18.795Z,22.93
2023-11-17T01:49:24.502Z,22.92
2023-11-17T01:49:30.150Z,22.91
2023-11-17T01:49:35.834Z,22.90
2023-11-17T01:49:52.657Z,22.90
2023-11-17T01:50:03.937Z,22.90
2023-11-17T01:50:20.800Z,22.90
2023-11-17T01:50:26.508Z,22.91
2023-11-17T01:50:33.190Z,22.90
2023-11-17T01:50:38.855Z,22.91
2023-11-17T01:50:55.661Z,22.91
2023-11-17T01:51:06.949Z,22.91
2023-11-17T01:51:23.779Z,22.91
2023-11-17T01:51:29.457Z,22.92
2023-11-17T01:51:35.145Z,22.91
2023-11-17T01:51:40.861Z,22.91
2023-11-17T01:51:57.695Z,22.91
2023-11-17T01:52:08.990Z,22.91
2023-11-17T01:52:25.854Z,22.92
2023-11-17T01:52:31.523Z,22.92
2023-11-17T01:52:37.197Z,22.91
2023-11-17T01:52:42.876Z,22.93
2023-11-17T01:52:59.789Z,22.93
2023-11-17T01:53:11.031Z,22.92
2023-11-17T01:53:27.878Z,22.91
2023-11-17T01:53:33.548Z,22.91
2023-11-17T01:53:39.238Z,22.91
2023-11-17T01:53:44.935Z,22.89
2023-11-17T01:54:01.762Z,22.88
2023-11-17T01:54:13.047Z,22.88
2023-11-17T01:54:29.922Z,22.84
2023-11-17T01:54:35.644Z,22.83
2023-11-17T01:54:41.355Z,22.84
2023-11-17T01:54:47.012Z,22.85
2023-11-17T01:55:03.881Z,22.84
2023-11-17T01:55:15.226Z,22.84
2023-11-17T01:55:32.070Z,22.85
2023-11-17T01:55:37.771Z,22.86
2023-11-17T01:55:43.438Z,22.86
2023-11-17T01:55:49.113Z,22.86
2023-11-17T01:56:05.981Z,22.86
2023-11-17T01:56:17.276Z,22.86
2023-11-17T01:56:34.089Z,22.87
2023-11-17T01:56:39.765Z,22.85
2023-11-17T01:56:45.441Z,22.83
2023-11-17T01:56:51.123Z,22.85
2023-11-17T01:57:07.956Z,22.86
2023-11-17T01:57:19.220Z,22.85
2023-11-17T01:57:36.056Z,22.87
2023-11-17T01:57:41.760Z,22.87
2023-11-17T01:57:47.474Z,22.87
2023-11-17T01:57:53.145Z,22.86
2023-11-17T01:58:09.961Z,22.86
2023-11-17T01:58:21.273Z,22.86
2023-11-17T01:58:38.049Z,22.86
2023-11-17T01:58:43.733Z,22.87
2023-11-17T01:58:49.418Z,22.88
2023-11-17T01:58:55.096Z,22.87
2023-11-17T01:59:11.976Z,22.85
2023-11-17T01:59:23.257Z,22.87
2023-11-17T01:59:40.092Z,22.88
2023-11-17T01:59:45.812Z,22.88
2023-11-17T01:59:51.452Z,22.89
2023-11-17T01:59:57.131Z,22.90
2023-11-17T05:55:54.821Z,22.55
2023-11-17T05:56:00.805Z,22.81
2023-11-17T05:56:06.482Z,22.75
2023-11-17T05:56:12.160Z,22.75
2023-11-17T05:56:17.834Z,22.75
2023-11-17T05:56:23.534Z,22.76
2023-11-17T05:56:57.077Z,22.81
2023-11-17T05:57:02.757Z,22.81
2023-11-17T05:57:08.429Z,22.81
2023-11-17T05:57:14.126Z,22.81
2023-11-17T05:57:19.807Z,22.80
2023-11-17T05:57:25.506Z,22.80
2023-11-17T05:57:59.124Z,22.77
2023-11-17T05:58:04.837Z,22.77
2023-11-17T05:58:10.602Z,22.78
2023-11-17T05:58:16.256Z,22.78
2023-11-17T05:58:22.137Z,22.78
2023-11-17T05:58:27.795Z,22.78
2023-11-17T05:59:02.833Z,22.80
2023-11-17T05:59:08.573Z,22.79
2023-11-17T05:59:14.222Z,22.78
2023-11-17T05:59:19.982Z,22.79
2023-11-17T05:59:25.601Z,22.79
2023-11-17T05:59:31.457Z,22.80
2023-11-17T06:00:05.306Z,22.79
2023-11-17T06:00:11.003Z,22.80
2023-11-17T06:00:16.692Z,22.80
2023-11-17T06:00:22.400Z,22.79
2023-11-17T06:00:28.277Z,22.79
2023-11-17T06:00:34.027Z,22.79
2023-11-17T06:01:07.567Z,22.76
2023-11-17T06:01:13.249Z,22.77
2023-11-17T06:01:18.943Z,22.78
2023-11-17T06:01:24.823Z,22.76
2023-11-17T06:01:30.663Z,22.77
2023-11-17T06:01:36.380Z,22.78
2023-11-17T06:02:09.986Z,22.77
2023-11-17T06:02:15.638Z,22.76
2023-11-17T06:02:21.339Z,22.77
2023-11-17T06:02:27.044Z,22.77
2023-11-17T06:02:32.745Z,22.78
2023-11-17T06:02:38.464Z,22.80
2023-11-17T06:03:12.023Z,22.79
2023-11-17T06:03:17.766Z,22.78
2023-11-17T06:03:23.504Z,22.78
2023-11-17T06:03:29.214Z,22.78
2023-11-17T06:03:34.902Z,22.79
2023-11-17T06:03:40.568Z,22.79
2023-11-17T06:04:14.253Z,22.78
2023-11-17T06:04:20.005Z,22.78
2023-11-17T06:04:25.797Z,22.78
2023-11-17T06:04:31.605Z,22.76
2023-11-17T06:04:37.398Z,22.77
2023-11-17T06:04:43.133Z,22.77
2023-11-17T06:05:16.744Z,22.78
2023-11-17T06:05:22.427Z,22.80
2023-11-17T06:05:28.117Z,22.79
2023-11-17T06:05:33.791Z,22.80
2023-11-17T06:05:39.461Z,22.79
2023-11-17T06:05:45.146Z,22.80
2023-11-17T06:06:18.731Z,22.81
2023-11-17T06:06:24.399Z,22.81
2023-11-17T06:06:30.092Z,22.81
2023-11-17T06:06:35.768Z,22.82
2023-11-17T06:06:41.466Z,22.83
2023-11-17T06:06:49.680Z,22.81
2023-11-17T06:07:23.333Z,22.84
2023-11-17T06:07:29.064Z,22.85
2023-11-17T06:07:34.716Z,22.85
2023-11-17T06:07:40.383Z,22.85
2023-11-17T06:07:46.074Z,22.85
2023-11-17T06:07:51.766Z,22.85
2023-11-17T06:08:27.911Z,22.86
2023-11-17T06:08:33.728Z,22.87
2023-11-17T06:08:39.365Z,22.86
2023-11-17T06:08:45.023Z,22.86
2023-11-17T06:08:50.700Z,22.85
2023-11-17T06:08:56.381Z,22.85
2023-11-17T06:09:29.947Z,22.85
2023-11-17T06:09:35.661Z,22.84
2023-11-17T06:09:41.337Z,22.86
2023-11-17T06:09:47.030Z,22.87
2023-11-17T06:09:52.728Z,22.87
2023-11-17T06:09:58.412Z,22.86
2023-11-17T06:10:32.107Z,22.85
2023-11-17T06:10:37.899Z,22.86
2023-11-17T06:10:43.556Z,22.85
2023-11-17T06:10:49.273Z,22.86
2023-11-17T06:10:57.505Z,22.87
2023-11-17T06:11:03.197Z,22.89
2023-11-17T06:11:32.778Z,22.91
2023-11-17T06:11:38.448Z,22.91
2023-11-17T06:11:44.128Z,22.90
2023-11-17T06:11:49.815Z,22.92
2023-11-17T09:30:06.019Z,22.92
2023-11-17T09:30:11.573Z,23.14
2023-11-17T09:30:17.108Z,23.16
2023-11-17T09:30:22.755Z,23.16
2023-11-17T09:30:28.258Z,23.17
2023-11-17T09:30:33.830Z,23.18
2023-11-17T09:31:06.473Z,23.20
2023-11-17T09:31:11.990Z,23.22
2023-11-17T09:31:17.528Z,23.21
2023-11-17T09:31:23.052Z,23.22
2023-11-17T09:31:28.611Z,23.22
2023-11-17T09:31:34.223Z,23.22
2023-11-17T09:32:06.808Z,23.24
2023-11-17T09:32:12.362Z,23.24
2023-11-17T09:32:17.858Z,23.23
2023-11-17T09:32:31.353Z,23.24
2023-11-17T09:32:36.895Z,23.23
2023-11-17T09:32:42.412Z,23.24
2023-11-17T09:33:12.364Z,23.25
2023-11-17T09:33:17.935Z,23.25
2023-11-17T09:33:23.695Z,23.25
2023-11-17T09:33:35.123Z,23.26
2023-11-17T09:33:40.810Z,23.28
2023-11-17T09:33:46.301Z,23.27
2023-11-17T09:34:14.435Z,23.30